createdAt,value
2018-09-16T00:00:04.336Z,4.00
2018-09-16T00:01:04.349Z,4.00
2018-09-16T00:02:04.363Z,4.00
2018-09-16T00:03:04.375Z,4.00
2018-09-16T00:04:04.390Z,4.00
2018-09-16T00:05:04.404Z,4.00
2018-09-16T00:06:04.416Z,4.00
2018-09-16T00:07:04.430Z,4.00
2018-09-16T00:08:04.442Z,4.00
2018-09-16T00:09:04.456Z,4.00
2018-09-16T00:10:04.471Z,4.00
2018-09-16T00:11:04.515Z,4.00
2018-09-16T00:12:04.501Z,4.00
2018-09-16T00:13:04.515Z,4.00
2018-09-16T00:14:04.529Z,4.00
2018-09-16T00:16:05.214Z,4.00
2018-09-16T00:17:04.577Z,4.00
2018-09-16T00:18:04.584Z,4.00
2018-09-16T00:19:04.599Z,4.00
2018-09-16T00:20:04.609Z,4.00
2018-09-16T00:21:04.626Z,4.00
2018-09-16T00:22:04.635Z,4.00
2018-09-16T00:23:04.647Z,4.00
2018-09-16T00:24:04.662Z,4.00
2018-09-16T00:25:04.684Z,4.00
2018-09-16T00:26:04.690Z,4.00
2018-09-16T00:27:04.705Z,4.00
2018-09-16T00:28:04.725Z,4.00
2018-09-16T00:29:04.733Z,4.00
2018-09-16T00:30:04.747Z,4.00
2018-09-16T00:31:04.762Z,4.00
2018-09-16T00:32:04.777Z,4.00
2018-09-16T00:33:04.793Z,4.00
2018-09-16T00:34:04.805Z,4.00
2018-09-16T00:35:04.817Z,4.00
2018-09-16T00:36:04.828Z,4.00
2018-09-16T00:37:04.851Z,4.00
2018-09-16T00:38:04.857Z,4.00
2018-09-16T00:39:04.875Z,4.00
2018-09-16T00:40:04.900Z,4.00
2018-09-16T00:41:04.923Z,4.00
2018-09-16T00:42:04.913Z,4.00
2018-09-16T00:43:04.925Z,4.00
2018-09-16T00:44:04.961Z,4.00
2018-09-16T00:45:04.952Z,4.00
2018-09-16T00:46:05.030Z,4.00
2018-09-16T00:47:05.020Z,4.00
2018-09-16T00:48:04.998Z,4.00
2018-09-16T00:49:05.030Z,4.00
2018-09-16T00:50:05.023Z,4.00
2018-09-16T00:51:05.035Z,4.00
2018-09-16T00:52:05.050Z,4.00
2018-09-16T00:53:05.063Z,4.00
2018-09-16T00:54:05.078Z,4.00
2018-09-16T00:55:05.092Z,4.00
2018-09-16T00:56:05.104Z,4.00
2018-09-16T00:57:05.120Z,4.00
2018-09-16T00:58:05.132Z,4.00
2018-09-16T00:59:05.144Z,4.00
2018-09-16T01:00:05.168Z,4.00
2018-09-16T01:01:05.173Z,4.00
2018-09-16T01:02:05.189Z,4.00
2018-09-16T01:03:05.216Z,4.00
2018-09-16T01:04:05.222Z,4.00
2018-09-16T01:05:05.258Z,4.00
2018-09-16T01:06:05.266Z,4.00
2018-09-16T01:07:05.259Z,4.00
2018-09-16T01:08:05.265Z,4.00
2018-09-16T01:09:05.282Z,4.00
2018-09-16T01:10:05.299Z,4.00
2018-09-16T01:11:05.308Z,4.00
2018-09-16T01:12:05.349Z,4.00
2018-09-16T01:13:05.355Z,4.00
2018-09-16T01:14:05.350Z,4.00
2018-09-16T01:15:05.365Z,4.00
2018-09-16T01:16:05.417Z,4.00
2018-09-16T01:17:05.392Z,4.00
2018-09-16T01:18:05.505Z,4.00
2018-09-16T01:19:05.670Z,4.00
2018-09-16T01:22:05.504Z,4.00
2018-09-16T01:23:05.476Z,4.00
2018-09-16T01:24:05.488Z,4.00
2018-09-16T01:25:05.501Z,4.00
2018-09-16T01:26:05.515Z,4.00
2018-09-16T01:27:05.527Z,4.00
2018-09-16T01:28:05.544Z,4.00
2018-09-16T01:29:05.552Z,4.00
2018-09-16T01:30:05.566Z,4.00
2018-09-16T01:31:05.582Z,4.00
2018-09-16T01:32:05.594Z,4.00
2018-09-16T01:33:05.618Z,4.00
2018-09-16T01:34:05.634Z,4.00
2018-09-16T01:35:05.641Z,4.00
2018-09-16T01:36:05.651Z,4.00
2018-09-16T01:37:05.664Z,4.00
2018-09-16T01:38:05.683Z,4.00
2018-09-16T01:39:05.691Z,4.00
2018-09-16T01:40:05.702Z,4.00
2018-09-16T01:41:05.742Z,4.00
2018-09-16T01:42:05.742Z,4.00
2018-09-16T01:43:05.746Z,4.00
2018-09-16T01:44:05.756Z,4.00
2018-09-16T01:45:05.770Z,4.00
2018-09-16T01:46:05.787Z,4.00
2018-09-16T01:47:05.798Z,4.00
2018-09-16T01:48:05.817Z,4.00
2018-09-16T01:49:05.833Z,4.00
2018-09-16T01:50:05.840Z,4.00
2018-09-16T01:51:05.854Z,4.00
2018-09-16T01:52:05.968Z,4.00
2018-09-16T01:53:06.007Z,4.00
2018-09-16T01:54:06.712Z,4.00
2018-09-16T01:55:05.911Z,4.00
2018-09-16T01:56:05.931Z,4.00
2018-09-16T01:57:05.935Z,4.00
2018-09-16T01:58:05.963Z,4.00
2018-09-16T01:59:05.963Z,4.00
2018-09-16T02:00:05.976Z,4.00
2018-09-16T02:01:06.018Z,4.00
2018-09-16T02:02:06.013Z,4.00
2018-09-16T02:03:06.016Z,4.00
2018-09-16T02:04:06.029Z,4.00
2018-09-16T02:05:06.050Z,4.00
2018-09-16T02:06:06.055Z,4.00
2018-09-16T02:07:06.089Z,4.00
2018-09-16T02:08:06.080Z,4.00
2018-09-16T02:09:06.096Z,4.00
2018-09-16T02:10:06.118Z,4.00
2018-09-16T02:11:06.125Z,4.00
2018-09-16T02:12:06.135Z,4.00
2018-09-16T02:13:06.149Z,4.00
2018-09-16T02:14:06.163Z,4.00
2018-09-16T02:15:06.176Z,4.00
2018-09-16T02:16:06.192Z,4.00
2018-09-16T02:17:06.212Z,4.00
2018-09-16T02:18:06.220Z,4.00
2018-09-16T02:19:06.237Z,4.00
2018-09-16T02:20:06.244Z,4.00
2018-09-16T02:21:06.256Z,4.00
2018-09-16T02:22:06.273Z,4.00
2018-09-16T02:23:06.296Z,4.00
2018-09-16T02:24:06.296Z,4.00
2018-09-16T02:25:06.452Z,4.00
2018-09-16T02:26:06.435Z,4.00
2018-09-16T02:27:06.339Z,4.00
2018-09-16T02:28:06.464Z,4.00
2018-09-16T02:29:06.363Z,4.00
2018-09-16T02:30:06.377Z,4.00
2018-09-16T02:31:06.399Z,4.00
2018-09-16T02:32:06.410Z,4.00
2018-09-16T02:33:06.429Z,4.00
2018-09-16T02:34:06.456Z,4.00
2018-09-16T02:35:06.444Z,4.00
2018-09-16T02:36:06.460Z,4.00
2018-09-16T02:37:06.472Z,4.00
2018-09-16T02:38:06.490Z,4.00
2018-09-16T02:39:06.501Z,4.00
2018-09-16T02:40:06.537Z,4.00
2018-09-16T02:41:06.528Z,4.00
2018-09-16T02:42:06.553Z,4.00
2018-09-16T02:43:06.550Z,4.00
2018-09-16T02:44:06.568Z,4.00
2018-09-16T02:45:06.579Z,4.00
2018-09-16T02:46:06.606Z,4.00
2018-09-16T02:47:06.629Z,4.00
2018-09-16T02:48:06.627Z,4.00
2018-09-16T02:49:06.667Z,4.00
2018-09-16T02:50:06.648Z,4.00
2018-09-16T02:51:06.656Z,4.00
2018-09-16T02:52:06.675Z,4.00
2018-09-16T02:53:06.695Z,4.00
2018-09-16T02:54:07.007Z,4.00
2018-09-16T02:55:06.710Z,4.00
2018-09-16T02:56:06.824Z,4.00
2018-09-16T02:57:06.740Z,4.00
2018-09-16T02:58:06.754Z,4.00
2018-09-16T02:59:07.017Z,4.00
2018-09-16T03:00:06.849Z,4.00
2018-09-16T03:01:06.840Z,4.00
2018-09-16T03:02:06.820Z,4.00
2018-09-16T03:03:06.863Z,4.00
2018-09-16T03:04:06.832Z,4.00
2018-09-16T03:05:06.850Z,4.00
2018-09-16T03:06:06.862Z,4.00
2018-09-16T03:07:06.879Z,4.00
2018-09-16T03:08:06.904Z,4.00
2018-09-16T03:09:06.899Z,4.00
2018-09-16T03:10:06.919Z,4.00
2018-09-16T03:11:06.942Z,4.00
2018-09-16T03:12:06.937Z,4.00
2018-09-16T03:13:06.956Z,4.00
2018-09-16T03:14:06.972Z,4.00
2018-09-16T03:15:06.982Z,4.00
2018-09-16T03:16:06.998Z,4.00
2018-09-16T03:17:07.008Z,4.00
2018-09-16T03:18:07.022Z,4.00
2018-09-16T03:19:07.035Z,4.00
2018-09-16T03:20:07.057Z,4.00
2018-09-16T03:21:07.062Z,4.00
2018-09-16T03:22:07.080Z,4.00
2018-09-16T03:23:07.085Z,4.00
2018-09-16T03:24:07.102Z,4.00
2018-09-16T03:25:07.140Z,4.00
2018-09-16T03:26:07.128Z,4.00
2018-09-16T03:27:07.160Z,4.00
2018-09-16T03:28:07.153Z,4.00
2018-09-16T03:29:07.166Z,4.00
2018-09-16T03:30:07.246Z,4.00
2018-09-16T03:33:07.710Z,4.00
2018-09-16T03:34:07.286Z,4.00
2018-09-16T03:35:08.001Z,4.00
2018-09-16T03:36:07.263Z,4.00
2018-09-16T03:37:07.270Z,4.00
2018-09-16T03:38:07.279Z,4.00
2018-09-16T03:39:07.292Z,4.00
2018-09-16T03:40:07.305Z,4.00
2018-09-16T03:41:07.319Z,4.00
2018-09-16T03:42:07.331Z,4.00
2018-09-16T03:43:07.345Z,4.00
2018-09-16T03:44:07.358Z,4.00
2018-09-16T03:45:07.372Z,4.00
2018-09-16T03:46:07.388Z,4.00
2018-09-16T03:47:07.399Z,4.00
2018-09-16T03:48:07.412Z,4.00
2018-09-16T03:49:07.426Z,4.00
2018-09-16T03:50:07.439Z,4.00
2018-09-16T03:51:07.456Z,4.00
2018-09-16T03:52:07.464Z,4.00
2018-09-16T03:53:07.481Z,4.00
2018-09-16T03:54:07.493Z,4.00
2018-09-16T03:55:07.506Z,4.00
2018-09-16T03:56:07.519Z,4.00
2018-09-16T03:57:07.535Z,4.00
2018-09-16T03:58:07.545Z,4.00
2018-09-16T03:59:07.558Z,4.00
2018-09-16T04:00:07.588Z,4.00
2018-09-16T04:01:07.585Z,4.00
2018-09-16T04:02:07.598Z,4.00
2018-09-16T04:03:07.619Z,4.00
2018-09-16T04:04:07.627Z,4.00
2018-09-16T04:05:07.649Z,4.00
2018-09-16T04:06:08.003Z,4.00
2018-09-16T04:07:07.665Z,4.00
2018-09-16T04:08:07.678Z,4.00
2018-09-16T04:09:07.690Z,4.00
2018-09-16T04:10:07.703Z,4.00
2018-09-16T04:11:07.718Z,4.00
2018-09-16T04:12:07.733Z,4.00
2018-09-16T04:13:07.750Z,4.00
2018-09-16T04:14:07.759Z,4.00
2018-09-16T04:15:07.775Z,4.00
2018-09-16T04:16:07.784Z,4.00
2018-09-16T04:17:07.798Z,4.00
2018-09-16T04:18:07.816Z,4.00
2018-09-16T04:19:07.823Z,4.00
2018-09-16T04:20:07.838Z,4.00
2018-09-16T04:21:07.913Z,4.00
2018-09-16T04:22:07.865Z,4.00
2018-09-16T04:23:07.884Z,4.00
2018-09-16T04:24:07.888Z,4.00
2018-09-16T04:25:07.902Z,4.00
2018-09-16T04:26:07.917Z,4.00
2018-09-16T04:27:07.927Z,4.00
2018-09-16T04:28:07.954Z,4.00
2018-09-16T04:29:07.961Z,4.00
2018-09-16T04:30:07.972Z,4.00
2018-09-16T04:31:07.984Z,4.00
2018-09-16T04:32:07.998Z,4.00
2018-09-16T04:33:08.013Z,4.00
2018-09-16T04:34:08.037Z,4.00
2018-09-16T04:35:08.084Z,4.00
2018-09-16T04:36:08.058Z,4.00
2018-09-16T04:37:08.080Z,4.00
2018-09-16T04:38:08.074Z,4.00
2018-09-16T04:39:08.090Z,4.00
2018-09-16T04:40:08.101Z,0.00
2018-09-16T04:41:08.113Z,4.00
2018-09-16T04:42:08.128Z,4.00
2018-09-16T04:43:08.140Z,4.00
2018-09-16T04:44:08.153Z,8.00
2018-09-16T04:45:08.180Z,4.00
2018-09-16T04:46:08.180Z,8.00
2018-09-16T04:47:08.192Z,8.00
2018-09-16T04:48:08.207Z,4.00
2018-09-16T04:49:08.220Z,8.00
2018-09-16T04:50:08.234Z,8.00
2018-09-16T04:51:08.246Z,8.00
2018-09-16T04:52:08.264Z,8.00
2018-09-16T04:53:08.273Z,12.00
2018-09-16T04:54:08.329Z,12.00
2018-09-16T04:55:08.309Z,16.00
2018-09-16T04:56:08.315Z,20.00
2018-09-16T04:57:08.324Z,20.00
2018-09-16T04:58:08.337Z,28.00
2018-09-16T04:59:08.352Z,32.00
2018-09-16T05:00:08.528Z,36.00
2018-09-16T05:01:08.441Z,40.00
2018-09-16T05:02:08.391Z,48.00
2018-09-16T05:03:08.402Z,48.00
2018-09-16T05:04:08.415Z,52.00
2018-09-16T05:05:08.480Z,60.00
2018-09-16T05:06:08.593Z,64.00
2018-09-16T05:08:08.884Z,80.00
2018-09-16T05:09:08.865Z,84.00
2018-09-16T05:11:08.514Z,100.00
2018-09-16T05:12:08.527Z,108.00
2018-09-16T05:13:08.553Z,116.00
2018-09-16T05:14:08.548Z,128.00
2018-09-16T05:15:08.561Z,140.00
2018-09-16T05:16:08.577Z,148.00
2018-09-16T05:17:08.600Z,160.00
2018-09-16T05:18:08.603Z,176.00
2018-09-16T05:19:08.616Z,188.00
2018-09-16T05:20:08.627Z,204.00
2018-09-16T05:21:08.641Z,220.00
2018-09-16T05:22:08.659Z,236.00
2018-09-16T05:23:08.677Z,248.00
2018-09-16T05:24:08.680Z,268.00
2018-09-16T05:25:08.692Z,280.00
2018-09-16T05:26:08.812Z,296.00
2018-09-16T05:27:08.721Z,308.00
2018-09-16T05:28:08.805Z,328.00
2018-09-16T05:29:08.757Z,352.00
2018-09-16T05:30:08.757Z,372.00
2018-09-16T05:31:08.771Z,392.00
2018-09-16T05:32:08.815Z,412.00
2018-09-16T05:33:08.813Z,436.00
2018-09-16T05:34:08.810Z,456.00
2018-09-16T05:35:08.823Z,484.00
2018-09-16T05:36:08.835Z,504.00
2018-09-16T05:37:09.007Z,524.00
2018-09-16T05:38:08.864Z,540.00
2018-09-16T05:39:09.104Z,552.00
2018-09-16T05:40:08.956Z,552.00
2018-09-16T05:41:08.944Z,564.00
2018-09-16T05:42:08.921Z,568.00
2018-09-16T05:43:09.026Z,580.00
2018-09-16T05:44:08.946Z,588.00
2018-09-16T05:45:08.952Z,596.00
2018-09-16T05:46:08.966Z,596.00
2018-09-16T05:47:08.979Z,604.00
2018-09-16T05:48:08.994Z,608.00
2018-09-16T05:49:09.009Z,612.00
2018-09-16T05:50:09.019Z,640.00
2018-09-16T05:51:09.030Z,660.00
2018-09-16T05:52:09.046Z,656.00
2018-09-16T05:53:09.131Z,672.00
2018-09-16T05:54:09.093Z,700.00
2018-09-16T05:55:09.083Z,692.00
2018-09-16T05:56:09.097Z,720.00
2018-09-16T05:57:09.120Z,720.00
2018-09-16T05:58:09.123Z,748.00
2018-09-16T05:59:09.176Z,736.00
2018-09-16T06:00:09.151Z,760.00
2018-09-16T06:01:09.163Z,740.00
2018-09-16T06:02:09.185Z,756.00
2018-09-16T06:03:09.192Z,852.00
2018-09-16T06:04:09.204Z,788.00
2018-09-16T06:05:09.313Z,740.00
2018-09-16T06:06:09.232Z,772.00
2018-09-16T06:07:09.248Z,856.00
2018-09-16T06:08:09.262Z,852.00
2018-09-16T06:09:09.270Z,844.00
2018-09-16T06:11:09.346Z,864.00
2018-09-16T06:12:09.707Z,888.00
2018-09-16T06:13:09.762Z,1080.00
2018-09-16T06:14:09.887Z,1056.00
2018-09-16T06:15:09.348Z,1200.00
2018-09-16T06:16:09.357Z,1348.00
2018-09-16T06:17:09.375Z,1152.00
2018-09-16T06:18:09.392Z,1380.00
2018-09-16T06:19:09.601Z,1128.00
2018-09-16T06:20:09.493Z,948.00
2018-09-16T06:21:09.424Z,952.00
2018-09-16T06:22:09.457Z,972.00
2018-09-16T06:23:09.455Z,988.00
2018-09-16T06:24:09.470Z,972.00
2018-09-16T06:25:09.477Z,1008.00
2018-09-16T06:26:09.487Z,924.00
2018-09-16T06:27:09.502Z,900.00
2018-09-16T06:28:09.516Z,988.00
2018-09-16T06:29:09.531Z,1016.00
2018-09-16T06:30:09.544Z,1080.00
2018-09-16T06:31:09.553Z,1204.00
2018-09-16T06:32:09.571Z,1192.00
2018-09-16T06:33:09.597Z,1132.00
2018-09-16T06:34:09.602Z,1188.00
2018-09-16T06:35:09.609Z,1152.00
2018-09-16T06:36:09.625Z,1040.00
2018-09-16T06:37:09.640Z,1136.00
2018-09-16T06:38:09.649Z,1204.00
2018-09-16T06:39:09.663Z,1200.00
2018-09-16T06:40:09.680Z,1144.00
2018-09-16T06:41:09.774Z,1272.00
2018-09-16T06:42:09.700Z,1284.00
2018-09-16T06:43:09.711Z,1232.00
2018-09-16T06:44:09.832Z,1272.00
2018-09-16T06:45:09.908Z,1324.00
2018-09-16T06:46:09.760Z,1408.00
2018-09-16T06:47:09.785Z,1448.00
2018-09-16T06:48:09.780Z,1456.00
2018-09-16T06:49:09.795Z,1440.00
2018-09-16T06:50:09.808Z,1500.00
2018-09-16T06:51:09.823Z,1484.00
2018-09-16T06:52:09.831Z,1536.00
2018-09-16T06:53:09.851Z,1556.00
2018-09-16T06:54:09.861Z,1568.00
2018-09-16T06:55:09.873Z,1580.00
2018-09-16T06:56:09.886Z,1588.00
2018-09-16T06:57:09.899Z,1592.00
2018-09-16T06:58:09.934Z,1592.00
2018-09-16T06:59:09.928Z,1552.00
2018-09-16T07:00:09.940Z,1496.00
2018-09-16T07:01:09.965Z,1592.00
2018-09-16T07:02:09.966Z,1600.00
2018-09-16T07:03:09.977Z,1600.00
2018-09-16T07:04:10.001Z,1652.00
2018-09-16T07:05:10.012Z,1648.00
2018-09-16T07:06:10.019Z,1664.00
2018-09-16T07:07:10.032Z,1688.00
2018-09-16T07:08:10.090Z,1692.00
2018-09-16T07:09:10.059Z,1712.00
2018-09-16T07:10:10.073Z,1728.00
2018-09-16T07:11:10.088Z,1612.00
2018-09-16T07:12:10.218Z,1684.00
2018-09-16T07:13:10.112Z,1684.00
2018-09-16T07:14:10.129Z,1784.00
2018-09-16T07:15:10.140Z,1824.00
2018-09-16T07:16:10.189Z,1836.00
2018-09-16T07:18:10.301Z,1812.00
2018-09-16T07:19:10.320Z,1868.00
2018-09-16T07:20:10.224Z,1708.00
2018-09-16T07:21:10.223Z,1652.00
2018-09-16T07:22:10.234Z,1872.00
2018-09-16T07:23:10.248Z,1948.00
2018-09-16T07:24:10.321Z,1924.00
2018-09-16T07:25:10.378Z,1968.00
2018-09-16T07:26:10.342Z,1856.00
2018-09-16T07:27:10.355Z,1984.00
2018-09-16T07:28:10.384Z,2020.00
2018-09-16T07:29:10.335Z,2072.00
2018-09-16T07:30:10.378Z,2084.00
2018-09-16T07:31:10.357Z,2084.00
2018-09-16T07:32:10.370Z,2152.00
2018-09-16T07:33:10.387Z,2160.00
2018-09-16T07:34:10.431Z,2172.00
2018-09-16T07:35:10.419Z,2192.00
2018-09-16T07:36:10.430Z,2216.00
2018-09-16T07:37:10.441Z,2248.00
2018-09-16T07:38:10.455Z,2276.00
2018-09-16T07:39:10.466Z,2312.00
2018-09-16T07:40:10.497Z,2320.00
2018-09-16T07:41:10.502Z,2356.00
2018-09-16T07:42:10.508Z,2376.00
2018-09-16T07:43:10.520Z,2396.00
2018-09-16T07:44:10.536Z,2420.00
2018-09-16T07:45:10.554Z,2420.00
2018-09-16T07:46:10.566Z,2456.00
2018-09-16T07:47:10.579Z,2464.00
2018-09-16T07:48:10.591Z,2476.00
2018-09-16T07:49:10.609Z,2520.00
2018-09-16T07:50:10.621Z,2556.00
2018-09-16T07:51:10.686Z,2600.00
2018-09-16T07:52:10.777Z,2624.00
2018-09-16T07:53:10.679Z,2616.00
2018-09-16T07:54:10.681Z,2592.00
2018-09-16T07:55:10.693Z,2552.00
2018-09-16T07:56:10.709Z,2592.00
2018-09-16T07:57:10.724Z,2664.00
2018-09-16T07:58:10.739Z,2724.00
2018-09-16T07:59:10.746Z,2712.00
2018-09-16T08:00:10.762Z,2684.00
2018-09-16T08:01:10.774Z,2664.00
2018-09-16T08:02:10.791Z,2772.00
2018-09-16T08:03:10.804Z,2912.00
2018-09-16T08:04:10.816Z,2908.00
2018-09-16T08:05:10.830Z,2924.00
2018-09-16T08:06:10.875Z,2964.00
2018-09-16T08:07:10.859Z,3032.00
2018-09-16T08:08:10.881Z,3064.00
2018-09-16T08:09:10.887Z,3072.00
2018-09-16T08:10:10.924Z,3036.00
2018-09-16T08:11:10.933Z,3172.00
2018-09-16T08:12:10.931Z,2924.00
2018-09-16T08:13:10.944Z,3104.00
2018-09-16T08:14:10.965Z,3072.00
2018-09-16T08:15:10.974Z,3068.00
2018-09-16T08:16:10.993Z,2972.00
2018-09-16T08:17:11.004Z,2936.00
2018-09-16T08:18:11.025Z,2848.00
2018-09-16T08:19:11.034Z,2912.00
2018-09-16T08:20:11.049Z,2828.00
2018-09-16T08:21:11.072Z,2816.00
2018-09-16T08:23:11.428Z,2700.00
2018-09-16T08:24:11.113Z,2688.00
2018-09-16T08:25:11.117Z,2928.00
2018-09-16T08:26:11.144Z,2976.00
2018-09-16T08:27:11.143Z,3128.00
2018-09-16T08:28:11.205Z,3240.00
2018-09-16T08:29:11.175Z,3212.00
2018-09-16T08:30:11.192Z,3300.00
2018-09-16T08:31:11.202Z,3264.00
2018-09-16T08:32:11.218Z,3436.00
2018-09-16T08:33:11.233Z,3600.00
2018-09-16T08:34:11.268Z,3672.00
2018-09-16T08:35:11.264Z,3740.00
2018-09-16T08:36:11.277Z,3700.00
2018-09-16T08:37:11.291Z,3828.00
2018-09-16T08:38:11.304Z,3932.00
2018-09-16T08:39:11.320Z,3856.00
2018-09-16T08:40:11.333Z,3764.00
2018-09-16T08:41:11.354Z,3768.00
2018-09-16T08:42:11.364Z,3812.00
2018-09-16T08:43:11.377Z,3284.00
2018-09-16T08:44:11.399Z,3308.00
2018-09-16T08:45:11.409Z,3188.00
2018-09-16T08:46:11.423Z,3252.00
2018-09-16T08:47:11.441Z,3284.00
2018-09-16T08:48:11.464Z,3172.00
2018-09-16T08:49:11.466Z,3124.00
2018-09-16T08:50:11.481Z,3152.00
2018-09-16T08:51:11.493Z,3196.00
2018-09-16T08:52:11.566Z,3264.00
2018-09-16T08:53:11.582Z,3152.00
2018-09-16T08:54:11.614Z,3140.00
2018-09-16T08:55:11.576Z,3288.00
2018-09-16T08:56:11.584Z,3584.00
2018-09-16T08:57:11.584Z,3948.00
2018-09-16T08:58:12.641Z,4116.00
2018-09-16T08:59:11.612Z,4192.00
2018-09-16T09:00:11.652Z,4096.00
2018-09-16T09:01:11.641Z,4008.00
2018-09-16T09:02:11.658Z,4208.00
2018-09-16T09:03:11.673Z,4324.00
2018-09-16T09:04:11.722Z,4172.00
2018-09-16T09:05:11.702Z,3968.00
2018-09-16T09:06:11.716Z,3852.00
2018-09-16T09:07:11.732Z,3812.00
2018-09-16T09:08:11.746Z,3500.00
2018-09-16T09:09:11.761Z,3852.00
2018-09-16T09:10:11.774Z,3660.00
2018-09-16T09:11:11.788Z,3660.00
2018-09-16T09:12:11.805Z,3396.00
2018-09-16T09:13:11.825Z,3476.00
2018-09-16T09:14:11.917Z,3316.00
2018-09-16T09:15:11.851Z,3140.00
2018-09-16T09:16:11.863Z,3116.00
2018-09-16T09:17:11.881Z,3016.00
2018-09-16T09:18:11.893Z,2784.00
2018-09-16T09:19:11.908Z,2716.00
2018-09-16T09:20:11.942Z,2668.00
2018-09-16T09:21:11.937Z,2712.00
2018-09-16T09:22:11.958Z,3032.00
2018-09-16T09:23:12.023Z,3156.00
2018-09-16T09:24:11.982Z,3092.00
2018-09-16T09:25:12.002Z,3060.00
2018-09-16T09:26:12.559Z,2876.00
2018-09-16T09:28:12.093Z,2816.00
2018-09-16T09:29:12.062Z,2948.00
2018-09-16T09:30:12.073Z,2716.00
2018-09-16T09:31:12.086Z,2636.00
2018-09-16T09:32:12.101Z,2664.00
2018-09-16T09:33:12.118Z,2480.00
2018-09-16T09:34:12.130Z,2880.00
2018-09-16T09:35:12.145Z,2932.00
2018-09-16T09:36:12.160Z,3092.00
2018-09-16T09:37:12.176Z,3176.00
2018-09-16T09:38:12.192Z,3372.00
2018-09-16T09:39:12.207Z,3392.00
2018-09-16T09:40:12.220Z,3328.00
2018-09-16T09:41:12.236Z,3340.00
2018-09-16T09:42:12.251Z,3352.00
2018-09-16T09:43:12.268Z,3360.00
2018-09-16T09:44:12.289Z,3328.00
2018-09-16T09:45:12.304Z,3256.00
2018-09-16T09:46:12.316Z,3168.00
2018-09-16T09:47:12.331Z,2844.00
2018-09-16T09:48:12.345Z,2880.00
2018-09-16T09:49:12.352Z,3012.00
2018-09-16T09:50:12.373Z,3168.00
2018-09-16T09:51:12.387Z,3136.00
2018-09-16T09:52:12.402Z,3124.00
2018-09-16T09:53:12.477Z,3092.00
2018-09-16T09:54:12.429Z,3268.00
2018-09-16T09:55:12.442Z,3484.00
2018-09-16T09:56:12.457Z,3508.00
2018-09-16T09:57:12.474Z,3476.00
2018-09-16T09:58:12.487Z,3556.00
2018-09-16T09:59:12.573Z,3596.00
2018-09-16T10:00:12.583Z,3652.00
2018-09-16T10:01:12.533Z,3784.00
2018-09-16T10:02:12.550Z,3700.00
2018-09-16T10:03:12.561Z,3812.00
2018-09-16T10:04:12.578Z,3816.00
2018-09-16T10:05:12.641Z,3780.00
2018-09-16T10:06:12.652Z,3804.00
2018-09-16T10:07:12.623Z,3756.00
2018-09-16T10:08:12.641Z,3840.00
2018-09-16T10:09:12.956Z,3864.00
2018-09-16T10:10:12.668Z,3808.00
2018-09-16T10:11:12.682Z,3772.00
2018-09-16T10:12:12.699Z,3496.00
2018-09-16T10:13:12.716Z,3332.00
2018-09-16T10:14:12.797Z,3496.00
2018-09-16T10:15:12.744Z,3584.00
2018-09-16T10:16:12.760Z,3604.00
2018-09-16T10:17:12.771Z,3428.00
2018-09-16T10:18:12.788Z,3816.00
2018-09-16T10:19:12.802Z,3868.00
2018-09-16T10:20:12.817Z,3920.00
2018-09-16T10:21:12.835Z,3996.00
2018-09-16T10:22:12.850Z,3944.00
2018-09-16T10:23:12.863Z,3864.00
2018-09-16T10:24:12.891Z,3888.00
2018-09-16T10:25:12.895Z,3800.00
2018-09-16T10:26:12.908Z,3772.00
2018-09-16T10:27:12.926Z,3736.00
2018-09-16T10:28:12.940Z,3612.00
2018-09-16T10:29:13.083Z,3580.00
2018-09-16T10:30:13.053Z,3236.00
2018-09-16T10:31:13.074Z,3220.00
2018-09-16T10:32:13.387Z,3344.00
2018-09-16T10:33:13.020Z,3252.00
2018-09-16T10:34:13.038Z,3420.00
2018-09-16T10:35:13.046Z,3356.00
2018-09-16T10:36:13.063Z,3252.00
2018-09-16T10:37:13.082Z,3416.00
2018-09-16T10:38:13.095Z,3528.00
2018-09-16T10:39:13.107Z,3248.00
2018-09-16T10:40:13.125Z,3104.00
2018-09-16T10:41:13.140Z,3200.00
2018-09-16T10:42:13.157Z,3172.00
2018-09-16T10:43:13.173Z,3248.00
2018-09-16T10:44:13.184Z,3216.00
2018-09-16T10:45:13.200Z,3496.00
2018-09-16T10:46:13.213Z,3672.00
2018-09-16T10:47:13.234Z,3524.00
2018-09-16T10:48:13.248Z,3436.00
2018-09-16T10:49:13.259Z,3136.00
2018-09-16T10:50:13.276Z,3376.00
2018-09-16T10:51:13.396Z,3452.00
2018-09-16T10:52:13.313Z,3372.00
2018-09-16T10:53:13.324Z,3224.00
2018-09-16T10:54:13.336Z,3172.00
2018-09-16T10:55:13.364Z,3192.00
2018-09-16T10:56:13.371Z,3176.00
2018-09-16T10:57:13.383Z,3176.00
2018-09-16T10:58:13.399Z,3160.00
2018-09-16T10:59:13.414Z,3332.00
2018-09-16T11:00:13.429Z,3440.00
2018-09-16T11:01:13.443Z,3416.00
2018-09-16T11:02:13.460Z,3440.00
2018-09-16T11:03:13.478Z,3328.00
2018-09-16T11:04:13.490Z,3284.00
2018-09-16T11:05:13.517Z,3500.00
2018-09-16T11:06:14.021Z,3604.00
2018-09-16T11:07:14.341Z,3664.00
2018-09-16T11:08:13.623Z,3832.00
2018-09-16T11:09:13.567Z,3868.00
2018-09-16T11:10:13.582Z,3816.00
2018-09-16T11:11:13.597Z,3848.00
2018-09-16T11:12:13.610Z,3960.00
2018-09-16T11:13:13.631Z,3980.00
2018-09-16T11:14:13.642Z,3944.00
2018-09-16T11:15:13.666Z,3996.00
2018-09-16T11:16:13.681Z,4028.00
2018-09-16T11:17:13.685Z,4092.00
2018-09-16T11:18:13.705Z,4072.00
2018-09-16T11:19:13.723Z,4052.00
2018-09-16T11:20:13.751Z,4028.00
2018-09-16T11:21:13.757Z,3932.00
2018-09-16T11:22:13.843Z,3876.00
2018-09-16T11:23:13.788Z,3824.00
2018-09-16T11:24:13.809Z,4016.00
2018-09-16T11:25:13.813Z,3996.00
2018-09-16T11:26:13.827Z,3992.00
2018-09-16T11:27:13.845Z,3952.00
2018-09-16T11:28:13.859Z,3944.00
2018-09-16T11:29:13.874Z,4040.00
2018-09-16T11:30:13.922Z,4076.00
2018-09-16T11:31:13.935Z,3964.00
2018-09-16T11:32:13.921Z,3796.00
2018-09-16T11:33:13.935Z,3872.00
2018-09-16T11:34:13.954Z,3956.00
2018-09-16T11:35:13.974Z,3956.00
2018-09-16T11:36:13.982Z,3836.00
2018-09-16T11:37:14.014Z,3868.00
2018-09-16T11:38:14.014Z,3692.00
2018-09-16T11:39:14.110Z,3828.00
2018-09-16T11:40:14.083Z,3480.00
2018-09-16T11:41:14.060Z,3760.00
2018-09-16T11:42:14.077Z,3520.00
2018-09-16T11:43:14.088Z,3468.00
2018-09-16T11:44:14.098Z,3520.00
2018-09-16T11:45:14.116Z,3504.00
2018-09-16T11:46:14.132Z,3544.00
2018-09-16T11:47:14.148Z,3440.00
2018-09-16T11:48:14.169Z,3552.00
2018-09-16T11:49:14.178Z,3628.00
2018-09-16T11:50:14.221Z,3756.00
2018-09-16T11:51:14.210Z,3728.00
2018-09-16T11:52:14.225Z,3692.00
2018-09-16T11:53:14.242Z,3600.00
2018-09-16T11:54:14.256Z,3608.00
2018-09-16T11:55:14.277Z,3624.00
2018-09-16T11:56:14.287Z,3624.00
2018-09-16T11:57:14.308Z,3464.00
2018-09-16T11:58:14.321Z,3608.00
2018-09-16T11:59:14.335Z,3720.00
2018-09-16T12:00:14.351Z,3836.00
2018-09-16T12:01:14.370Z,3864.00
2018-09-16T12:02:14.385Z,3884.00
2018-09-16T12:03:14.398Z,3852.00
2018-09-16T12:04:14.414Z,3768.00
2018-09-16T12:05:14.473Z,3700.00
2018-09-16T12:06:14.443Z,3620.00
2018-09-16T12:07:14.511Z,3564.00
2018-09-16T12:08:14.627Z,3548.00
2018-09-16T12:09:14.816Z,3516.00
2018-09-16T12:10:14.509Z,3500.00
2018-09-16T12:11:14.523Z,3552.00
2018-09-16T12:12:14.540Z,3632.00
2018-09-16T12:13:14.556Z,3588.00
2018-09-16T12:14:14.570Z,3608.00
2018-09-16T12:15:14.585Z,3588.00
2018-09-16T12:16:14.704Z,3684.00
2018-09-16T12:17:14.617Z,3728.00
2018-09-16T12:18:14.633Z,3852.00
2018-09-16T12:19:14.647Z,3964.00
2018-09-16T12:20:14.663Z,4084.00
2018-09-16T12:21:14.680Z,4132.00
2018-09-16T12:22:14.699Z,4152.00
2018-09-16T12:23:14.716Z,4224.00
2018-09-16T12:24:14.728Z,4268.00
2018-09-16T12:25:14.743Z,4456.00
2018-09-16T12:26:14.761Z,4436.00
2018-09-16T12:27:14.786Z,4328.00
2018-09-16T12:28:14.791Z,4400.00
2018-09-16T12:29:14.808Z,4344.00
2018-09-16T12:30:14.825Z,4308.00
2018-09-16T12:31:14.841Z,4268.00
2018-09-16T12:32:14.856Z,4260.00
2018-09-16T12:33:14.870Z,4204.00
2018-09-16T12:34:14.890Z,4180.00
2018-09-16T12:35:14.901Z,4124.00
2018-09-16T12:36:14.916Z,4064.00
2018-09-16T12:37:14.935Z,4032.00
2018-09-16T12:38:14.951Z,4148.00
2018-09-16T12:39:14.969Z,4104.00
2018-09-16T12:41:15.230Z,4292.00
2018-09-16T12:42:15.059Z,4324.00
2018-09-16T12:43:15.043Z,4356.00
2018-09-16T12:44:15.045Z,4352.00
2018-09-16T12:45:15.111Z,4404.00
2018-09-16T12:46:15.082Z,4440.00
2018-09-16T12:47:15.093Z,4456.00